Time;durP1;ratioP1;P1;durP2;ratioP2;P2;SDS_P1;SDS_P2;PMS_P1;PMS_P2;Temp;Humidity;BMP_temperature;BMP_pressure;BME280_temperature;BME280_humidity;BME280_pressure;Samples;Min_cycle;Max_cycle;Signal;HPM_P1;HPM_P2
2021/05/28 00:01:46;;;;;;;13.85;7.85;;;10.40;99.90;;;;;;5050125;28;20034;-64
2021/05/28 00:04:12;;;;;;;13.15;8.07;;;10.30;99.90;;;;;;5033997;28;20114;-64
2021/05/28 00:06:37;;;;;;;12.10;8.05;;;10.30;99.90;;;;;;5033502;28;20029;-64
2021/05/28 00:09:05;;;;;;;19.50;8.30;;;10.30;99.90;;;;;;5034725;28;20092;-65
2021/05/28 00:11:31;;;;;;;15.25;7.78;;;10.40;99.90;;;;;;5053589;28;20059;-64
2021/05/28 00:13:56;;;;;;;15.38;8.50;;;10.40;99.90;;;;;;5054105;28;20130;-64
2021/05/28 00:16:24;;;;;;;14.60;8.10;;;10.40;99.90;;;;;;5053100;28;20064;-64
2021/05/28 00:18:51;;;;;;;14.40;8.48;;;10.40;99.90;;;;;;5053892;28;20049;-65
2021/05/28 00:21:16;;;;;;;13.25;7.88;;;10.50;99.90;;;;;;5053458;28;20037;-64
2021/05/28 00:23:42;;;;;;;10.25;6.85;;;10.40;99.90;;;;;;5053435;28;20040;-64
2021/05/28 00:26:08;;;;;;;10.88;7.55;;;10.40;99.90;;;;;;5053677;28;20033;-65
2021/05/28 00:28:33;;;;;;;15.27;7.85;;;10.40;99.90;;;;;;5053146;28;20041;-64
2021/05/28 00:30:59;;;;;;;12.80;7.53;;;10.20;99.90;;;;;;5053430;28;20037;-64
2021/05/28 00:33:25;;;;;;;17.13;8.25;;;10.40;99.90;;;;;;5036633;28;20109;-64
2021/05/28 00:35:50;;;;;;;11.07;6.82;;;10.30;99.90;;;;;;5033542;28;20116;-64
2021/05/28 00:38:16;;;;;;;13.00;7.80;;;10.30;99.90;;;;;;5033288;28;20029;-64
2021/05/28 00:40:42;;;;;;;13.68;7.13;;;10.30;99.90;;;;;;5033231;28;20042;-64
2021/05/28 00:43:08;;;;;;;13.75;7.18;;;10.30;99.90;;;;;;5033543;28;20026;-64
2021/05/28 00:45:33;;;;;;;13.27;7.10;;;10.40;99.90;;;;;;5031732;28;20036;-64
2021/05/28 00:47:59;;;;;;;13.45;7.40;;;10.40;99.90;;;;;;5033106;28;20029;-64
2021/05/28 00:50:29;;;;;;;14.73;7.75;;;10.50;99.90;;;;;;5033157;28;20121;-64
2021/05/28 00:52:56;;;;;;;11.57;7.63;;;10.50;99.90;;;;;;5016198;28;20048;-64
2021/05/28 00:55:24;;;;;;;11.25;7.93;;;10.50;99.90;;;;;;5031927;28;20506;-64
2021/05/28 00:57:51;;;;;;;16.55;8.13;;;10.50;99.90;;;;;;5032780;28;20030;-64
2021/05/28 01:00:18;;;;;;;12.35;7.50;;;10.40;99.90;;;;;;5031836;28;20033;-64
2021/05/28 01:02:43;;;;;;;10.68;7.78;;;10.30;99.90;;;;;;5042618;28;20108;-64
2021/05/28 01:05:10;;;;;;;15.68;8.02;;;10.40;99.90;;;;;;5052974;28;20060;-64
2021/05/28 01:07:36;;;;;;;12.35;7.65;;;10.40;99.90;;;;;;5052489;28;20029;-64
2021/05/28 01:10:03;;;;;;;15.55;8.38;;;10.40;99.90;;;;;;5052908;28;20033;-64
2021/05/28 01:12:29;;;;;;;13.63;8.10;;;10.40;99.90;;;;;;5052523;28;20033;-64
2021/05/28 01:14:54;;;;;;;14.23;8.32;;;10.50;99.90;;;;;;5052537;28;20032;-64
2021/05/28 01:17:21;;;;;;;18.38;8.27;;;10.50;99.90;;;;;;5051585;28;20036;-63
2021/05/28 01:19:48;;;;;;;24.40;8.32;;;10.50;99.90;;;;;;5051458;28;20041;-63
2021/05/28 01:22:17;;;;;;;15.90;7.70;;;10.50;99.90;;;;;;5051206;28;20096;-64
2021/05/28 01:24:43;;;;;;;12.38;7.43;;;10.50;99.90;;;;;;5051870;28;20033;-64
2021/05/28 01:27:11;;;;;;;16.85;8.38;;;10.60;99.90;;;;;;5051606;28;20028;-64
2021/05/28 01:29:37;;;;;;;17.83;8.32;;;10.50;99.90;;;;;;5051234;28;20505;-64
2021/05/28 01:32:03;;;;;;;14.63;8.50;;;10.50;99.90;;;;;;5047277;28;20112;-64
2021/05/28 01:34:29;;;;;;;14.40;8.75;;;10.50;99.90;;;;;;5032415;28;20029;-64
2021/05/28 01:36:55;;;;;;;15.00;8.30;;;10.40;99.90;;;;;;5032324;28;20037;-64
2021/05/28 01:39:21;;;;;;;14.68;8.57;;;10.50;99.90;;;;;;5032364;28;20033;-64
2021/05/28 01:41:47;;;;;;;15.77;8.85;;;10.50;99.90;;;;;;5032468;28;20079;-64
2021/05/28 01:44:13;;;;;;;16.65;9.07;;;10.50;99.90;;;;;;5047623;28;20064;-64
2021/05/28 01:46:39;;;;;;;15.00;8.73;;;10.40;99.90;;;;;;5032084;28;20069;-64
2021/05/28 01:49:05;;;;;;;14.95;8.23;;;10.50;99.90;;;;;;5032456;28;20083;-64
2021/05/28 01:51:32;;;;;;;13.30;8.40;;;10.50;99.90;;;;;;5032134;28;20079;-64
2021/05/28 01:53:58;;;;;;;16.65;8.57;;;10.40;99.90;;;;;;5047502;28;20037;-64
2021/05/28 01:56:25;;;;;;;15.02;9.32;;;10.40;99.90;;;;;;5032202;28;20041;-64
2021/05/28 01:58:52;;;;;;;14.80;8.88;;;10.30;99.90;;;;;;5047331;28;20091;-65
2021/05/28 02:01:18;;;;;;;13.55;9.15;;;10.40;99.90;;;;;;5032325;28;20038;-64
2021/05/28 02:03:43;;;;;;;15.43;8.73;;;10.40;99.90;;;;;;5051265;28;20391;-64
2021/05/28 02:06:09;;;;;;;17.15;9.88;;;10.40;99.90;;;;;;5050595;28;20064;-64
2021/05/28 02:08:35;;;;;;;16.63;9.68;;;10.40;99.90;;;;;;5048731;28;20409;-64
2021/05/28 02:11:01;;;;;;;17.67;9.57;;;10.40;99.90;;;;;;5034020;28;20040;-64
2021/05/28 02:13:26;;;;;;;17.33;9.50;;;10.40;99.90;;;;;;5052122;28;20025;-64
2021/05/28 02:15:52;;;;;;;17.90;9.13;;;10.40;99.90;;;;;;5051767;28;20082;-64
2021/05/28 02:18:20;;;;;;;14.60;8.63;;;10.40;99.90;;;;;;5051837;28;20481;-64
2021/05/28 02:20:46;;;;;;;20.27;9.00;;;10.50;99.90;;;;;;5050716;28;20437;-64
2021/05/28 02:23:12;;;;;;;16.42;9.20;;;10.40;99.90;;;;;;5051606;28;20440;-64
2021/05/28 02:25:37;;;;;;;16.02;8.57;;;10.30;99.90;;;;;;5067353;28;20075;-64
2021/05/28 02:28:03;;;;;;;14.07;8.27;;;10.30;99.90;;;;;;5051604;28;20459;-64
2021/05/28 02:30:29;;;;;;;16.52;9.07;;;10.30;99.90;;;;;;5051376;28;20452;-64
2021/05/28 02:32:55;;;;;;;18.20;9.55;;;10.30;99.90;;;;;;5054512;28;20104;-64
2021/05/28 02:35:21;;;;;;;16.00;10.07;;;10.20;99.90;;;;;;5031894;28;20053;-64
2021/05/28 02:37:47;;;;;;;17.08;8.60;;;10.20;99.90;;;;;;5030607;28;20547;-64
2021/05/28 02:40:13;;;;;;;17.83;9.93;;;10.30;99.90;;;;;;5033890;28;20116;-64
2021/05/28 02:42:39;;;;;;;20.38;9.75;;;10.30;99.90;;;;;;5035420;28;20087;-64
2021/05/28 02:45:07;;;;;;;20.20;9.45;;;10.40;99.90;;;;;;5035458;28;20030;-64
2021/05/28 02:47:34;;;;;;;18.63;8.85;;;10.30;99.90;;;;;;5017891;28;20018;-64
2021/05/28 02:49:59;;;;;;;18.63;9.50;;;10.30;99.90;;;;;;5035551;28;20025;-64
2021/05/28 02:52:26;;;;;;;17.92;10.43;;;10.20;99.90;;;;;;5034374;28;20031;-64
2021/05/28 02:54:52;;;;;;;16.85;9.27;;;10.20;99.90;;;;;;5035021;28;20453;-64
2021/05/28 02:57:18;;;;;;;16.27;8.90;;;10.10;99.90;;;;;;5035634;28;20068;-64
2021/05/28 02:59:44;;;;;;;19.63;9.65;;;10.20;99.90;;;;;;5035134;28;20057;-64
2021/05/28 03:02:09;;;;;;;23.65;9.05;;;10.10;99.90;;;;;;5041716;28;20041;-64
2021/05/28 03:04:37;;;;;;;19.73;9.68;;;10.10;99.90;;;;;;5055192;28;20036;-64
2021/05/28 03:07:03;;;;;;;16.42;9.18;;;10.00;99.90;;;;;;5053953;28;20037;-64
2021/05/28 03:09:29;;;;;;;12.07;8.55;;;10.00;99.90;;;;;;5054798;28;20024;-64
2021/05/28 03:11:55;;;;;;;16.77;8.80;;;10.00;99.90;;;;;;5053749;28;20029;-64
2021/05/28 03:14:21;;;;;;;16.80;9.90;;;9.90;99.90;;;;;;5053564;28;20033;-64
2021/05/28 03:16:47;;;;;;;18.52;9.57;;;9.90;99.90;;;;;;5054957;28;20048;-64
2021/05/28 03:19:29;;;;;;;17.55;10.77;;;9.90;99.90;;;;;;5055084;28;20029;-64
2021/05/28 03:24:43;;;;;;;17.33;8.88;;;10.00;99.90;;;;;;5054928;28;20445;-64
2021/05/28 03:27:09;;;;;;;16.70;9.60;;;9.90;99.90;;;;;;5070121;28;20083;-64
2021/05/28 03:29:36;;;;;;;16.27;8.18;;;9.90;99.90;;;;;;5054535;28;20033;-64
2021/05/28 03:32:03;;;;;;;13.93;8.30;;;9.80;99.90;;;;;;5049641;28;20037;-64
2021/05/28 03:34:29;;;;;;;15.90;9.15;;;9.80;99.90;;;;;;5034735;28;20029;-63
2021/05/28 03:36:55;;;;;;;19.77;9.20;;;9.80;99.90;;;;;;5034380;28;20090;-63
2021/05/28 03:39:20;;;;;;;16.08;9.15;;;9.80;99.90;;;;;;5034431;28;20128;-64
2021/05/28 03:41:46;;;;;;;16.65;9.80;;;9.80;99.90;;;;;;5034504;28;20085;-64
2021/05/28 03:44:12;;;;;;;17.08;9.13;;;9.80;99.90;;;;;;5034172;28;20629;-64
2021/05/28 03:46:38;;;;;;;14.55;8.80;;;9.60;99.90;;;;;;5034439;28;20029;-65
2021/05/28 03:49:03;;;;;;;14.85;8.57;;;9.70;99.90;;;;;;5033008;28;20033;-66
2021/05/28 03:51:29;;;;;;;16.02;9.13;;;9.70;99.90;;;;;;5032158;28;20040;-64
2021/05/28 03:53:55;;;;;;;18.38;9.45;;;9.70;99.90;;;;;;5033739;28;20034;-65
2021/05/28 03:56:21;;;;;;;16.38;9.55;;;9.70;99.90;;;;;;5033179;28;20029;-65
2021/05/28 03:58:46;;;;;;;15.75;8.88;;;9.70;99.90;;;;;;5033760;28;20029;-64
2021/05/28 04:01:12;;;;;;;12.50;8.90;;;9.70;99.90;;;;;;5032835;28;20034;-65
2021/05/28 04:03:38;;;;;;;20.08;9.15;;;9.70;99.90;;;;;;5052246;28;20124;-67
2021/05/28 04:06:04;;;;;;;13.85;7.95;;;9.60;99.90;;;;;;5051722;28;20112;-67
2021/05/28 04:08:30;;;;;;;16.60;8.27;;;9.60;99.90;;;;;;5034001;28;20037;-68
2021/05/28 04:10:55;;;;;;;15.70;8.90;;;9.50;99.90;;;;;;5033613;28;20044;-66
2021/05/28 04:13:28;;;;;;;17.90;8.60;;;9.50;99.90;;;;;;5034098;28;20041;-66
2021/05/28 04:15:53;;;;;;;17.52;9.43;;;9.50;99.90;;;;;;5000435;28;20025;-67
2021/05/28 04:18:19;;;;;;;16.55;8.77;;;9.50;99.90;;;;;;5033575;28;20424;-65
2021/05/28 04:20:45;;;;;;;13.82;8.43;;;9.50;99.90;;;;;;5033367;28;20477;-66
2021/05/28 04:23:11;;;;;;;14.73;8.25;;;9.50;99.90;;;;;;5032341;28;20030;-65
2021/05/28 04:25:37;;;;;;;17.42;9.30;;;9.50;99.90;;;;;;5033511;28;20504;-65
2021/05/28 04:28:03;;;;;;;14.65;9.05;;;9.50;99.90;;;;;;5033533;28;20049;-65
2021/05/28 04:30:29;;;;;;;22.42;9.43;;;9.60;99.90;;;;;;5033198;28;20034;-66
2021/05/28 04:32:54;;;;;;;16.73;9.70;;;9.50;99.90;;;;;;5045713;28;20040;-63
2021/05/28 04:35:21;;;;;;;15.95;9.38;;;9.60;99.90;;;;;;5053385;28;20036;-64
2021/05/28 04:37:46;;;;;;;13.88;9.40;;;9.70;99.90;;;;;;5053028;28;20036;-64
2021/05/28 04:40:14;;;;;;;14.90;9.73;;;9.60;99.90;;;;;;5053239;28;20048;-64
2021/05/28 04:42:39;;;;;;;14.30;8.93;;;9.70;99.90;;;;;;5053254;28;20079;-63
2021/05/28 04:45:06;;;;;;;14.82;9.13;;;9.60;99.90;;;;;;5053152;28;20500;-66
2021/05/28 04:47:32;;;;;;;19.67;10.70;;;9.60;99.90;;;;;;5035513;28;20032;-65
2021/05/28 04:49:59;;;;;;;19.45;11.20;;;9.60;99.90;;;;;;5052873;28;20033;-66
2021/05/28 04:52:25;;;;;;;19.52;10.77;;;9.80;99.90;;;;;;5052085;28;20170;-66
2021/05/28 04:54:51;;;;;;;19.70;10.70;;;10.00;99.90;;;;;;5051516;28;20162;-66
2021/05/28 04:57:16;;;;;;;18.45;11.43;;;10.10;99.90;;;;;;5053266;28;20025;-66
2021/05/28 04:59:42;;;;;;;17.02;10.25;;;10.20;99.90;;;;;;5052805;28;20033;-64
2021/05/28 05:02:08;;;;;;;23.35;10.80;;;10.20;99.90;;;;;;5018965;28;20044;-67
2021/05/28 05:04:34;;;;;;;22.23;10.57;;;10.20;99.90;;;;;;5032086;28;20172;-65
2021/05/28 05:07:00;;;;;;;19.35;10.80;;;10.20;99.90;;;;;;5032762;28;20268;-66
2021/05/28 05:09:25;;;;;;;20.13;9.88;;;10.30;99.90;;;;;;5031168;28;20041;-64
2021/05/28 05:11:51;;;;;;;17.25;9.85;;;10.30;99.90;;;;;;5031238;28;20079;-65
2021/05/28 05:14:17;;;;;;;15.32;9.25;;;10.30;99.90;;;;;;5015206;28;20029;-66
2021/05/28 05:16:43;;;;;;;16.92;10.30;;;10.40;99.90;;;;;;5031029;28;20201;-66
2021/05/28 05:19:09;;;;;;;16.60;10.25;;;10.40;99.90;;;;;;5032678;28;20029;-66
2021/05/28 05:21:34;;;;;;;19.15;10.57;;;10.50;99.90;;;;;;5032320;28;20095;-65
2021/05/28 05:24:00;;;;;;;19.88;9.98;;;10.50;99.90;;;;;;5032364;28;20102;-65
2021/05/28 05:26:26;;;;;;;16.13;9.13;;;10.60;99.90;;;;;;5031382;28;20389;-66
2021/05/28 05:28:52;;;;;;;19.25;9.57;;;10.80;99.90;;;;;;5030501;28;20518;-66
2021/05/28 05:31:19;;;;;;;20.40;9.13;;;10.70;99.90;;;;;;5031643;28;20519;-66
2021/05/28 05:33:45;;;;;;;23.52;10.85;;;10.70;99.90;;;;;;5032149;28;20101;-66
2021/05/28 05:36:10;;;;;;;17.95;9.98;;;10.60;99.90;;;;;;5032194;28;20037;-66
2021/05/28 05:38:36;;;;;;;16.90;9.43;;;10.60;99.90;;;;;;5032333;28;20035;-66
2021/05/28 05:41:02;;;;;;;17.02;10.40;;;10.60;99.90;;;;;;5030880;28;20033;-67
2021/05/28 05:43:28;;;;;;;23.23;11.23;;;10.60;99.90;;;;;;5032388;28;20103;-67
2021/05/28 05:45:54;;;;;;;26.67;11.13;;;10.60;99.90;;;;;;5032354;28;20033;-67
2021/05/28 05:48:19;;;;;;;19.85;10.30;;;10.50;99.90;;;;;;5032160;28;20042;-67
2021/05/28 05:50:45;;;;;;;27.55;11.80;;;10.70;99.90;;;;;;5030938;28;20542;-67
2021/05/28 05:53:11;;;;;;;18.65;10.82;;;10.60;99.90;;;;;;5032093;28;20044;-67
2021/05/28 05:55:37;;;;;;;19.48;12.27;;;10.70;99.90;;;;;;5032019;28;20044;-67
2021/05/28 05:58:02;;;;;;;17.17;10.77;;;10.80;99.90;;;;;;5030883;28;20457;-67
2021/05/28 06:00:28;;;;;;;23.55;10.80;;;11.00;99.90;;;;;;5031084;28;20115;-65
2021/05/28 06:02:54;;;;;;;24.35;11.95;;;10.80;99.90;;;;;;5032113;28;20033;-67
2021/05/28 06:05:20;;;;;;;21.35;11.10;;;10.90;99.90;;;;;;5031965;28;20029;-67
2021/05/28 06:07:46;;;;;;;17.13;10.77;;;10.90;99.90;;;;;;5031910;28;20029;-67
2021/05/28 06:10:13;;;;;;;25.23;12.15;;;11.00;99.90;;;;;;5032075;28;20481;-67
2021/05/28 06:12:39;;;;;;;19.67;10.75;;;11.20;99.90;;;;;;5032122;28;20424;-67
2021/05/28 06:15:06;;;;;;;18.55;10.48;;;11.20;99.90;;;;;;5033775;28;20045;-66
2021/05/28 06:17:32;;;;;;;20.33;10.13;;;11.20;99.90;;;;;;5035807;28;20029;-67
2021/05/28 06:19:58;;;;;;;20.77;11.35;;;11.30;99.90;;;;;;5035845;28;20037;-66
2021/05/28 06:22:24;;;;;;;21.30;10.60;;;11.30;99.90;;;;;;5035684;28;20040;-67
2021/05/28 06:24:50;;;;;;;17.42;10.63;;;11.50;99.90;;;;;;5035874;28;20112;-67
2021/05/28 06:27:16;;;;;;;20.85;11.02;;;11.50;99.90;;;;;;5035414;28;20036;-67
2021/05/28 06:29:42;;;;;;;21.27;11.13;;;11.60;99.90;;;;;;5034442;28;20061;-67
2021/05/28 06:32:08;;;;;;;20.42;11.25;;;11.70;99.90;;;;;;5035742;28;20153;-66
2021/05/28 06:34:34;;;;;;;23.08;10.73;;;11.70;99.90;;;;;;5035778;28;20034;-67
2021/05/28 06:37:00;;;;;;;18.70;9.65;;;11.80;99.90;;;;;;5035597;28;20036;-67
2021/05/28 06:39:27;;;;;;;18.00;10.45;;;12.00;99.90;;;;;;5034304;28;20026;-67
2021/05/28 06:41:53;;;;;;;15.77;9.80;;;12.10;99.90;;;;;;5035393;28;20700;-67
2021/05/28 06:44:23;;;;;;;19.45;10.23;;;12.20;99.90;;;;;;5035445;28;20034;-66
2021/05/28 06:46:51;;;;;;;17.52;9.80;;;12.20;99.90;;;;;;5034092;28;20034;-67
2021/05/28 06:49:18;;;;;;;16.65;8.75;;;12.30;99.90;;;;;;5034768;28;20033;-66
2021/05/28 06:51:45;;;;;;;21.20;9.32;;;12.50;99.90;;;;;;5035169;28;20033;-66
2021/05/28 06:54:12;;;;;;;15.40;8.18;;;12.70;99.90;;;;;;5035303;28;20052;-66
2021/05/28 06:56:38;;;;;;;14.73;8.85;;;12.60;99.90;;;;;;5035017;28;20057;-66
2021/05/28 06:59:08;;;;;;;16.55;7.40;;;12.80;99.90;;;;;;5034937;28;20029;-66
2021/05/28 07:01:34;;;;;;;15.02;8.82;;;12.70;99.90;;;;;;5035112;28;20080;-66
2021/05/28 07:04:02;;;;;;;13.32;8.40;;;12.80;99.90;;;;;;5034442;28;20029;-66
2021/05/28 07:06:29;;;;;;;13.30;7.78;;;12.90;99.90;;;;;;5033074;28;20033;-66
2021/05/28 07:08:56;;;;;;;19.77;8.38;;;12.90;99.90;;;;;;5033448;28;20029;-66
2021/05/28 07:11:24;;;;;;;11.75;7.38;;;12.90;99.90;;;;;;5034706;28;20481;-66
2021/05/28 07:13:49;;;;;;;14.20;8.20;;;12.90;99.90;;;;;;5034650;28;20060;-67
2021/05/28 07:16:16;;;;;;;17.15;7.85;;;12.90;99.90;;;;;;5035001;28;20068;-66
2021/05/28 07:18:42;;;;;;;15.25;7.35;;;13.00;99.90;;;;;;5033447;28;20029;-67
2021/05/28 07:21:08;;;;;;;19.38;9.70;;;13.20;99.90;;;;;;5034797;28;20060;-67
2021/05/28 07:23:33;;;;;;;16.92;8.43;;;13.10;99.90;;;;;;5034788;28;20075;-67
2021/05/28 07:26:01;;;;;;;11.50;7.40;;;13.30;99.90;;;;;;5033216;28;20125;-67
2021/05/28 07:28:29;;;;;;;20.58;9.23;;;13.50;99.90;;;;;;5033264;28;20116;-67
2021/05/28 07:30:55;;;;;;;18.80;8.50;;;13.50;99.90;;;;;;5033937;28;20034;-66
2021/05/28 07:33:21;;;;;;;14.55;7.45;;;13.20;99.90;;;;;;5034340;28;20034;-66
2021/05/28 07:35:47;;;;;;;14.90;7.97;;;13.30;99.90;;;;;;5033171;28;20445;-66
2021/05/28 07:38:13;;;;;;;17.92;8.35;;;13.30;99.90;;;;;;5034394;28;20033;-66
2021/05/28 07:40:41;;;;;;;16.40;7.20;;;13.70;99.90;;;;;;5034294;28;20033;-66
2021/05/28 07:43:07;;;;;;;15.57;6.90;;;14.00;99.90;;;;;;5032745;28;20571;-67
2021/05/28 07:45:33;;;;;;;12.63;6.50;;;14.20;99.90;;;;;;5032895;28;20045;-67
2021/05/28 07:47:59;;;;;;;12.70;6.75;;;14.30;99.90;;;;;;5033976;28;20052;-67
2021/05/28 07:50:25;;;;;;;14.25;6.00;;;14.10;99.90;;;;;;5033964;28;20036;-66
2021/05/28 07:52:51;;;;;;;13.45;6.47;;;14.10;99.90;;;;;;5032609;28;20417;-67
2021/05/28 07:55:17;;;;;;;14.73;5.90;;;14.20;99.90;;;;;;5032749;28;20091;-67
2021/05/28 07:57:44;;;;;;;14.05;6.25;;;14.30;99.90;;;;;;5034110;28;20025;-66
2021/05/28 08:00:10;;;;;;;9.88;6.15;;;14.50;99.90;;;;;;5033835;28;20523;-67
2021/05/28 08:02:36;;;;;;;10.60;6.13;;;14.20;99.90;;;;;;5034127;28;20025;-67
2021/05/28 08:05:03;;;;;;;12.27;5.95;;;14.50;99.90;;;;;;5032482;28;20040;-67
2021/05/28 08:07:29;;;;;;;7.60;5.35;;;14.30;99.90;;;;;;5032619;28;20107;-66
2021/05/28 08:09:55;;;;;;;14.18;5.55;;;14.70;99.90;;;;;;5033533;28;20065;-66
2021/05/28 08:12:20;;;;;;;9.82;5.93;;;14.80;99.90;;;;;;5033591;28;20045;-67
2021/05/28 08:14:46;;;;;;;11.43;5.70;;;14.60;99.90;;;;;;5032500;28;20114;-67
2021/05/28 08:17:12;;;;;;;9.60;5.03;;;14.50;99.90;;;;;;5033646;28;20141;-66
2021/05/28 08:19:39;;;;;;;19.50;9.32;;;14.60;99.90;;;;;;5033909;28;20047;-67
2021/05/28 08:22:05;;;;;;;11.65;6.60;;;14.70;99.90;;;;;;5033582;28;20033;-66
2021/05/28 08:24:30;;;;;;;8.30;5.30;;;14.90;99.90;;;;;;5032311;28;20413;-66
2021/05/28 08:26:56;;;;;;;10.27;5.45;;;14.70;99.90;;;;;;5033512;28;20037;-65
2021/05/28 08:29:22;;;;;;;11.02;5.93;;;14.90;99.90;;;;;;5033073;28;20045;-65
2021/05/28 08:31:48;;;;;;;9.65;5.10;;;14.70;99.90;;;;;;5033275;28;20029;-66
2021/05/28 08:34:14;;;;;;;7.88;3.88;;;15.00;99.90;;;;;;5015720;28;20455;-66
2021/05/28 08:36:40;;;;;;;6.70;3.60;;;15.50;99.90;;;;;;5033034;28;20539;-65
2021/05/28 08:39:06;;;;;;;8.27;3.90;;;15.50;99.90;;;;;;5033061;28;20065;-65
2021/05/28 08:41:34;;;;;;;9.38;3.58;;;15.30;99.90;;;;;;5031787;28;20057;-65
2021/05/28 08:44:00;;;;;;;6.85;3.70;;;15.50;99.90;;;;;;5031955;28;20029;-65
2021/05/28 08:46:26;;;;;;;6.57;4.60;;;15.70;99.90;;;;;;5032157;28;20452;-66
2021/05/28 08:48:52;;;;;;;10.02;5.53;;;16.30;99.90;;;;;;5033152;28;20031;-66
2021/05/28 08:51:19;;;;;;;8.57;4.53;;;16.40;99.90;;;;;;5031726;28;20034;-66
2021/05/28 08:53:44;;;;;;;6.88;4.97;;;16.00;99.90;;;;;;5033069;28;20137;-65
2021/05/28 08:56:11;;;;;;;8.35;4.38;;;15.30;99.90;;;;;;5033144;28;20580;-65
2021/05/28 08:58:38;;;;;;;8.75;4.55;;;15.30;99.90;;;;;;5031996;28;20040;-65
2021/05/28 09:01:07;;;;;;;7.38;4.10;;;15.70;99.90;;;;;;5032676;28;20022;-65
2021/05/28 09:03:36;;;;;;;8.38;4.43;;;16.00;99.90;;;;;;5032759;28;20113;-65
2021/05/28 09:06:17;;;;;;;9.35;5.00;;;16.20;99.90;;;;;;5031451;28;20440;-65
2021/05/28 09:08:42;;;;;;;6.85;3.60;;;16.60;99.90;;;;;;5031629;28;20057;-65
2021/05/28 09:11:15;;;;;;;6.18;3.95;;;16.80;99.90;;;;;;5032456;28;20473;-65
2021/05/28 09:13:57;;;;;;;7.57;4.00;;;17.00;99.90;;;;;;5031568;28;20494;-65
2021/05/28 09:16:28;;;;;;;9.02;3.75;;;17.10;99.90;;;;;;5032849;28;20385;-65
2021/05/28 09:19:00;;;;;;;10.00;4.72;;;16.60;99.90;;;;;;5031521;28;20029;-65
2021/05/28 09:21:35;;;;;;;9.13;4.78;;;15.90;99.90;;;;;;5031334;28;20391;-65
2021/05/28 09:24:04;;;;;;;7.88;3.58;;;15.60;99.90;;;;;;5031546;28;20025;-65
2021/05/28 09:26:33;;;;;;;9.95;4.05;;;16.10;99.90;;;;;;5031408;28;20076;-65
2021/05/28 09:29:01;;;;;;;5.45;3.58;;;16.10;99.90;;;;;;5032002;28;20041;-65
2021/05/28 09:31:34;;;;;;;7.78;3.42;;;16.10;99.90;;;;;;5032313;28;20037;-65
2021/05/28 09:34:00;;;;;;;7.03;3.03;;;16.10;99.90;;;;;;5032256;28;20116;-65
2021/05/28 09:36:35;;;;;;;5.80;3.22;;;16.50;99.90;;;;;;5030787;28;20413;-65
2021/05/28 09:39:15;;;;;;;5.85;3.30;;;15.90;99.90;;;;;;5030983;28;20163;-65
2021/05/28 09:41:57;;;;;;;10.07;5.07;;;15.90;99.90;;;;;;5032002;28;20029;-65
2021/05/28 09:44:29;;;;;;;6.57;3.10;;;16.10;99.90;;;;;;5014869;28;20037;-65
2021/05/28 09:47:21;;;;;;;8.40;2.97;;;16.60;99.90;;;;;;5032313;28;20037;-65
2021/05/28 09:49:51;;;;;;;;;;;16.90;99.90;;;;;;5031330;28;20033;-65
2021/05/28 09:52:20;;;;;;;7.75;3.50;;;16.80;99.90;;;;;;5046913;28;20369;-65
2021/05/28 09:55:06;;;;;;;6.80;3.42;;;16.80;99.90;;;;;;5032104;28;20072;-66
2021/05/28 09:57:34;;;;;;;6.07;2.88;;;16.40;99.90;;;;;;5031000;28;20437;-65
2021/05/28 10:00:03;;;;;;;7.90;3.72;;;16.70;99.90;;;;;;5031820;28;20124;-66
2021/05/28 10:02:35;;;;;;;7.40;2.83;;;17.00;99.90;;;;;;5031073;28;20092;-66
2021/05/28 10:05:01;;;;;;;7.35;3.10;;;17.50;99.90;;;;;;5030577;28;20406;-66
2021/05/28 10:07:29;;;;;;;7.63;4.00;;;17.50;99.90;;;;;;5030837;28;20036;-66
2021/05/28 10:09:56;;;;;;;9.88;4.75;;;17.40;99.90;;;;;;5031730;28;20021;-65
2021/05/28 10:12:25;;;;;;;4.47;2.70;;;17.60;99.90;;;;;;5031953;28;20034;-65
2021/05/28 10:14:52;;;;;;;4.63;2.88;;;17.20;99.90;;;;;;5030715;28;20378;-65
2021/05/28 10:17:20;;;;;;;4.30;2.25;;;16.70;99.90;;;;;;5031874;28;20185;-65
2021/05/28 10:19:47;;;;;;;4.25;2.40;;;17.30;99.90;;;;;;5030679;28;20159;-65
2021/05/28 10:22:16;;;;;;;5.75;2.30;;;17.60;99.90;;;;;;5031922;28;20033;-66
2021/05/28 10:24:42;;;;;;;7.68;2.58;;;17.70;99.90;;;;;;5030904;28;20068;-66
2021/05/28 10:27:08;;;;;;;5.78;2.03;;;17.90;99.90;;;;;;5030521;28;20029;-66
2021/05/28 10:29:34;;;;;;;3.35;1.70;;;17.20;99.90;;;;;;5030365;28;20482;-66
2021/05/28 10:32:12;;;;;;;42.40;21.90;;;17.60;99.90;;;;;;5031768;28;20033;-66
2021/05/28 10:35:11;;;;;;;4.55;1.90;;;17.40;99.90;;;;;;5030347;28;20387;-66
2021/05/28 10:37:41;;;;;;;3.00;1.38;;;18.00;99.90;;;;;;5031683;28;20037;-66
2021/05/28 10:40:29;;;;;;;1.88;1.17;;;18.30;99.90;;;;;;5031585;28;20040;-66
2021/05/28 10:43:03;;;;;;;2.95;1.20;;;18.70;98.40;;;;;;5031789;28;20034;-66
2021/05/28 10:46:07;;;;;;;4.25;1.20;;;18.50;97.20;;;;;;5030468;28;20041;-66
2021/05/28 10:48:39;;;;;;;2.47;0.90;;;18.30;96.80;;;;;;5030597;28;20025;-65
2021/05/28 10:51:41;;;;;;;2.92;1.52;;;18.60;97.70;;;;;;5031381;28;20095;-65
2021/05/28 10:54:07;;;;;;;1.75;1.00;;;17.80;99.20;;;;;;5030297;28;20091;-66
2021/05/28 10:56:35;;;;;;;3.42;1.20;;;18.00;98.70;;;;;;5031797;28;20482;-66
2021/05/28 10:59:16;;;;;;;3.38;1.48;;;18.10;98.10;;;;;;5031662;28;20041;-65
2021/05/28 11:01:42;;;;;;;4.22;2.08;;;18.10;99.30;;;;;;5034239;28;20041;-65
2021/05/28 11:04:21;;;;;;;3.55;1.52;;;17.70;99.90;;;;;;5034966;28;20537;-66
2021/05/28 11:06:59;;;;;;;2.60;1.20;;;18.30;98.80;;;;;;5035112;28;20041;-65
2021/05/28 11:09:51;;;;;;;3.85;1.30;;;18.50;98.00;;;;;;5033599;28;20049;-65
2021/05/28 11:12:27;;;;;;;4.93;1.20;;;18.40;96.40;;;;;;5035111;28;20069;-65
2021/05/28 11:15:16;;;;;;;3.83;1.13;;;18.30;97.20;;;;;;5035045;28;20037;-66
2021/05/28 11:18:09;;;;;;;3.35;1.20;;;18.70;95.80;;;;;;5033715;28;20104;-66
2021/05/28 11:20:42;;;;;;;5.35;1.63;;;18.30;97.10;;;;;;5049046;28;20090;-66
2021/05/28 11:23:21;;;;;;;3.72;1.10;;;18.30;98.00;;;;;;5033721;28;20037;-66
2021/05/28 11:25:53;;;;;;;5.25;1.58;;;18.70;96.80;;;;;;5034569;28;20033;-66
2021/05/28 11:28:19;;;;;;;5.10;1.48;;;18.80;96.90;;;;;;5000850;28;20052;-66
2021/05/28 11:30:59;;;;;;;2.28;1.05;;;18.60;97.30;;;;;;5034363;28;20548;-66
2021/05/28 11:33:36;;;;;;;3.40;1.40;;;18.50;97.10;;;;;;5033330;28;20484;-66
2021/05/28 11:36:28;;;;;;;4.07;1.40;;;18.60;97.10;;;;;;5033219;28;20560;-66
2021/05/28 11:39:19;;;;;;;8.10;3.22;;;17.90;98.00;;;;;;5033355;28;20045;-66
2021/05/28 11:41:46;;;;;;;;;;;17.70;99.90;;;;;;5034034;28;20065;-66
2021/05/28 11:44:15;;;;;;;3.97;1.40;;;17.80;99.90;;;;;;5034272;28;19913;-66
2021/05/28 11:46:46;;;;;;;3.65;1.35;;;18.30;97.60;;;;;;5033049;28;20040;-66
2021/05/28 11:49:18;;;;;;;5.10;1.15;;;18.30;97.40;;;;;;5034297;28;20459;-66
2021/05/28 11:51:45;;;;;;;5.78;2.35;;;18.40;97.80;;;;;;5016511;28;20041;-65
2021/05/28 11:54:32;;;;;;;7.30;2.95;;;18.50;97.00;;;;;;5033994;28;20085;-66
2021/05/28 11:57:04;;;;;;;3.78;1.00;;;18.40;97.60;;;;;;5034180;28;20026;-66
2021/05/28 11:59:55;;;;;;;2.65;1.10;;;18.90;95.30;;;;;;5032837;28;20042;-66
2021/05/28 12:02:57;;;;;;;6.63;1.20;;;19.60;94.70;;;;;;5032573;28;20052;-66
2021/05/28 12:05:39;;;;;;;3.55;1.92;;;20.40;93.70;;;;;;5032405;28;20299;-66
2021/05/28 12:08:10;;;;;;;2.65;1.23;;;20.40;92.00;;;;;;5033653;28;20037;-66
2021/05/28 12:10:39;;;;;;;5.38;1.20;;;20.90;91.10;;;;;;5033649;28;20068;-66
2021/05/28 12:13:15;;;;;;;4.25;1.67;;;21.10;90.90;;;;;;5032184;28;20049;-66
2021/05/28 12:15:50;;;;;;;21.60;12.90;;;19.70;92.90;;;;;;5032442;28;20048;-66
2021/05/28 12:18:19;;;;;;;4.50;2.40;;;19.70;94.60;;;;;;5033868;28;20049;-66
2021/05/28 12:21:08;;;;;;;2.10;1.00;;;19.90;90.60;;;;;;5032358;28;20038;-66
2021/05/28 12:23:41;;;;;;;2.88;1.30;;;19.50;91.10;;;;;;5032196;28;20025;-66
2021/05/28 12:26:14;;;;;;;3.63;1.40;;;20.00;92.10;;;;;;5033490;28;20029;-65
2021/05/28 12:28:42;;;;;;;3.10;0.68;;;19.30;89.60;;;;;;5033342;28;20048;-66
2021/05/28 12:31:14;;;;;;;3.00;1.13;;;19.70;90.40;;;;;;5016039;28;20030;-66
2021/05/28 12:33:43;;;;;;;5.18;1.20;;;20.50;88.20;;;;;;5033209;28;20025;-66
2021/05/28 12:36:12;;;;;;;2.72;0.85;;;21.00;88.30;;;;;;5033220;28;20036;-64
2021/05/28 12:38:44;;;;;;;2.35;1.00;;;21.10;86.90;;;;;;5032894;28;20440;-64
2021/05/28 12:41:32;;;;;;;2.22;0.82;;;21.40;83.40;;;;;;5032966;28;20427;-65
2021/05/28 12:44:00;;;;;;;2.80;0.90;;;21.40;85.50;;;;;;5033268;28;20068;-65
2021/05/28 12:46:33;;;;;;;3.15;1.00;;;20.20;84.20;;;;;;5031495;28;20031;-65
2021/05/28 12:49:32;;;;;;;3.80;1.00;;;20.40;88.20;;;;;;5033195;28;20121;-66
2021/05/28 12:52:00;;;;;;;2.55;0.88;;;20.30;85.30;;;;;;5024523;28;20049;-65